Tiempo atmosférico en la estación meteorológica de Jaraicejo, Cáceres (510 m.)



Fecha
DESCASC
Temp. máxima en grados centígrados (hora)
DESCASC
Temp. mínima en grados centígrados (hora)
DESCASC
Temp. media en grados centígrados
DESCASC
Racha de viento máxima en m/sg (hora)
DESCASC
Velocidad máxima media en intervalos de 10 minutos(hora)
DESCASC
Precipitaciones diarias en mm
DESCASC
Precipitaciones de 00:00 a 06:00 en mm
DESCASC
Precipitaciones de 06:00 a 12:00 en mm
DESCASC
Precipitaciones de 12:00 a 18:00 en mm
DESCASC
Precipitaciones de 18:00 a 24:00 en mm
DESCASC
20-09-2020 22.7 (18:20) 15.3 (08:30) 19 8.61 (16:10) 5.28 (16:10) 9.2 0 8.4 0.8 0
19-09-2020 21.3 (15:20) 15.1 (02:50) 18.2 12.78 (03:50) 8.89 (02:40) 0.8 0.8 0 0 0
18-09-2020 21.6 (12:50) 14.8 (08:10) 18.2 10.28 (22:40) 6.67 (22:40) 18.4 3.2 0 2 13.2
17-09-2020 25.7 (17:40) 16.8 (00:00) 21.3 13.61 (18:40) 8.06 (20:50) 1.2 0 0 0 1.2
16-09-2020 31.2 (16:00) 18.6 (00:00) 24.9 9.17 (17:10) 6.67 (17:10) 0 0 0 0 0
15-09-2020 28.8 (18:00) 16.8 (00:00) 22.8 10 (16:00) 5.28 (15:50) 0 0 0 0 0
14-09-2020 31.5 (16:20) 19.9 (00:00) 25.7 13.33 (19:40) 6.94 (19:40) 7.8 0 0 0 7.8
13-09-2020 34.2 (17:10) 22.1 (00:00) 28.2 9.44 (12:40) 6.94 (12:40) 0 0 0 0 0
12-09-2020 34.7 (16:40) 21.4 (00:00) 28.1 9.72 (17:30) 6.11 (08:10) 0 0 0 0 0
11-09-2020 33.4 (15:50) 19.9 (00:00) 26.7 8.06 (16:40) 6.11 (10:20) 0 0 0 0 0
10-09-2020 32.6 (16:20) 18.4 (00:00) 25.5 8.33 (11:30) 5.83 (10:30) 0 0 0 0 0
09-09-2020 30.9 (17:20) 18.2 (00:00) 24.6 9.17 (07:00) 7.22 (07:00) 0 0 0 0 0
08-09-2020 28.1 (17:00) 15.4 (00:00) 21.8 13.89 (11:00) 10.28 (11:00) 0 0 0 0 0
07-09-2020 30.9 (16:50) 19.3 (08:20) 25.1 10 (12:40) 7.22 (12:40) 0 0 0 0 0
06-09-2020 35.1 (17:00) 21.3 (00:00) 28.2 9.17 (10:50) 6.94 (10:50) 0 0 0 0 0
05-09-2020 35.3 (16:50) 21.8 (00:00) 28.5 7.5 (08:20) 5.83 (08:00) 0 0 0 0 0
04-09-2020 34.5 (17:40) 21.1 (00:00) 27.8 8.89 (02:50) 5.28 (23:59) 0 0 0 0 0
03-09-2020 33.9 (17:30) 19.3 (00:00) 26.6 8.33 (15:40) 5 (03:10) 0 0 0 0 0
02-09-2020 32.1 (17:10) 17.9 (00:00) 25 13.06 (10:10) 10 (09:50) 0 0 0 0 0
01-09-2020 30.5 (17:10) 18.2 (00:00) 24.4 7.22 (15:20) 3.61 (15:00) 0 0 0 0 0
31-08-2020 28.6 (18:10) 14.3 (00:00) 21.5 11.11 (06:50) 8.61 (07:20) 0 0 0 0 0
30-08-2020 25.8 (17:00) 12.7 (00:00) 19.2 9.44 (12:00) 6.39 (11:20) 0 0 0 0 0
29-08-2020 26.2 (17:00) 11.4 (00:00) 18.8 13.33 (00:20) 6.67 (00:20) 0 0 0 0 0
28-08-2020 30.8 (15:50) 18.8 (00:00) 24.8 12.22 (11:10) 6.11 (16:40) 0 0 0 0 0
27-08-2020 37.5 (17:00) 21.3 (00:00) 29.4 7.22 (17:20) 5 (23:00) 0 0 0 0 0
26-08-2020 37.2 (17:30) 22.1 (00:00) 29.7 8.89 (15:30) 4.72 (16:30) 0 0 0 0 0
25-08-2020 37.3 (18:10) 22.6 (00:00) 29.9 8.06 (15:10) 3.61 (04:50) 0 0 0 0 0
24-08-2020 36.3 (17:40) 21.2 (00:00) 28.8 11.11 (09:30) 8.33 (09:30) 0 0 0 0 0

Gráficas

Temp. máximas Temp. mínimas Temp. medias Precipitaciones Rachas de viento máximas Velocidades máximas media en intervalos de 10 minutos

Datos horarios

Fecha y hora oficial Temperatura (ºC) Velocidad del viento (km/h) Dirección del viento Racha (km/h) Dirección de racha Precipitación (mm) Presión (hPa) Tendencia (hPa) Humedad (%)
2020-09-22 23:00:00 18.7 7 Oeste 17 Sudoeste 0 -- -- 75
2020-09-22 22:00:00 19 8 Sudoeste 27 Sudoeste 1.6 -- -- 80
2020-09-22 21:00:00 20.8 4 Oeste 10 Sudoeste 0 -- -- 60
2020-09-22 20:00:00 22.3 4 Oeste 17 Sudoeste 0 -- -- 54
2020-09-22 19:00:00 24.4 8 Oeste 24 Sudoeste 0 -- -- 48
2020-09-22 18:00:00 25 11 Sudoeste 28 Oeste 0 -- -- 47
2020-09-22 17:00:00 24.8 10 Oeste 24 Oeste 0 -- -- 48
2020-09-22 16:00:00 24.3 10 Oeste 26 Sudoeste 0 -- -- 50
2020-09-22 15:00:00 24.2 14 Sudoeste 29 Sudoeste 0 -- -- 50
2020-09-22 14:00:00 22.9 11 Sudoeste 21 Sudoeste 0 -- -- 53
2020-09-22 13:00:00 21.6 8 Sur 18 Sudoeste 0 -- -- 59
2020-09-22 12:00:00 19.8 6 Sudoeste 15 Sudoeste 0 -- -- 65
2020-09-22 11:00:00 17.4 8 Sudoeste 13 Sudoeste 0 -- -- 75
2020-09-22 10:00:00 15.5 5 Sur 12 Sudeste 0 -- -- 83
2020-09-22 09:00:00 14.2 9 Sudeste 14 Sudeste 0 -- -- 88
2020-09-22 08:00:00 13.5 7 Sudeste 9 Sudeste 0 -- -- 90
2020-09-22 07:00:00 13.8 7 Sudeste 11 Sudeste 0 -- -- 88
2020-09-22 06:00:00 14.3 8 Sudeste 11 Sudeste 0 -- -- 87
2020-09-22 05:00:00 14.6 7 Este 10 Sudeste 0 -- -- 85
2020-09-22 04:00:00 14.8 7 Sudeste 10 Sudeste 0 -- -- 83
2020-09-22 03:00:00 15.1 6 Sudeste 10 Este 0 -- -- 79
2020-09-22 02:00:00 15.7 0 Calma 6 Sudoeste 0 -- -- 76
2020-09-22 01:00:00 16.6 5 Sudoeste 10 Sudoeste 0 -- -- 70
2020-09-22 00:00:00 17.5 4 Oeste 10 Oeste 0 -- -- 63
2020-09-21 23:00:00 18.3 6 Oeste 13 Oeste 0 -- -- 60
2020-09-21 22:00:00 19.2 6 Oeste 12 Sudoeste 0 -- -- 55
2020-09-21 21:00:00 19.5 4 Oeste 12 Sudoeste 0 -- -- 53
2020-09-21 20:00:00 21.5 6 Oeste 20 Oeste 0 -- -- 47
2020-09-21 19:00:00 23.4 10 Oeste 22 Oeste 0 -- -- 41
2020-09-21 18:00:00 24.3 9 Oeste 24 Sudoeste 0 -- -- 39
2020-09-21 17:00:00 24.5 11 Sudoeste 27 Sudoeste 0 -- -- 39
2020-09-21 16:00:00 23.8 9 Oeste 24 Sudoeste 0 -- -- 45
2020-09-21 15:00:00 23.1 8 Oeste 17 Sur 0 -- -- 46
2020-09-21 14:00:00 22.1 8 Sudoeste 17 Sudoeste 0 -- -- 52
2020-09-21 13:00:00 20.8 6 Oeste 16 Sudoeste 0 -- -- 57
2020-09-21 12:00:00 19 5 Sudoeste 12 Sudoeste 0 -- -- 67
2020-09-21 11:00:00 16.7 3 Sur 8 Sur 0 -- -- 80
2020-09-21 10:00:00 14.8 4 Sur 9 Sudeste 0 -- -- 87
2020-09-21 09:00:00 13.4 7 Sudeste 10 Sudeste 0 -- -- 93
2020-09-21 08:00:00 13.3 6 Sudeste 12 Sudeste 0 -- -- 92
2020-09-21 07:00:00 13.4 7 Sudeste 9 Sudeste 0 -- -- 92
2020-09-21 06:00:00 13.6 6 Sudeste 10 Sudeste 0 -- -- 91
2020-09-21 05:00:00 14 5 Sudeste 9 Sudeste 0 -- -- 90
2020-09-21 04:00:00 14.5 7 Sudeste 12 Sudeste 0 -- -- 87
2020-09-21 03:00:00 15.2 5 Sudeste 10 Este 0 -- -- 82
2020-09-21 02:00:00 15.8 4 Oeste 9 Oeste 0 -- -- 79
2020-09-21 01:00:00 16.4 5 Oeste 11 Oeste 0 -- -- 76
2020-09-21 00:00:00 16.7 4 Oeste 10 Sudoeste 0 -- -- 72
2020-09-20 23:00:00 17.6 4 Oeste 18 Oeste 0 -- -- 68
2020-09-20 22:00:00 18.4 5 Oeste 14 Oeste 0 -- -- 64
2020-09-20 21:00:00 19.5 8 Oeste 22 Oeste 0 -- -- 61
2020-09-20 20:00:00 21.2 9 Oeste 25 Oeste 0 -- -- 61
2020-09-20 19:00:00 22.5 13 Sudoeste 24 Sudoeste 0 -- -- 61
2020-09-20 18:00:00 22.4 14 Sudoeste 28 Sudoeste 0 -- -- 63
2020-09-20 17:00:00 21.6 13 Sudoeste 31 Sudoeste 0.2 -- -- 67
2020-09-20 16:00:00 20.4 13 Sudoeste 27 Sudoeste 0 -- -- 77
2020-09-20 15:00:00 18.9 6 Oeste 26 Oeste 0 -- -- 88
2020-09-20 14:00:00 18.5 7 Oeste 22 Sudoeste 0.6 -- -- 91
2020-09-20 13:00:00 18.7 10 Sudoeste 24 Sudoeste 0 -- -- 88
2020-09-20 12:00:00 17.1 7 Sudoeste 15 Sudoeste 1.4 -- -- 99
2020-09-20 11:00:00 15.6 2 Sudoeste 20 Sur 5.2 -- -- 98
2020-09-20 10:00:00 15.5 14 Sur 22 Sur 0.8 -- -- 98
2020-09-20 09:00:00 15.4 8 Sur 16 Sudeste 0.2 -- -- 97
2020-09-20 08:00:00 15.5 10 Sur 16 Sur 0.8 -- -- 95
2020-09-20 07:00:00 15.6 10 Sur 18 Sur 0 -- -- 94
2020-09-20 06:00:00 15.6 10 Sur 17 Sur 0 -- -- 93
2020-09-20 05:00:00 15.9 10 Sur 17 Sudoeste 0 -- -- 93
2020-09-20 04:00:00 16.1 9 Sur 13 Sur 0 -- -- 92
2020-09-20 03:00:00 16.2 6 Sur 9 Sur 0 -- -- 89
2020-09-20 02:00:00 16.4 4 Sudoeste 15 Sudoeste 0 -- -- 89
2020-09-20 01:00:00 16.8 6 Sudoeste 11 Sudoeste 0 -- -- 84
2020-09-20 00:00:00 17.6 5 Sudoeste 10 Noroeste 0 -- -- 80
2020-09-19 23:00:00 17.4 4 Noroeste 11 Noroeste 0 -- -- 82
2020-09-19 22:00:00 17.4 2 Este 5 Norte 0 -- -- 82
2020-09-19 21:00:00 17.9 3 Noroeste 15 Norte 0 -- -- 77
2020-09-19 20:00:00 18.4 9 Noroeste 22 Sudoeste 0 -- -- 74
2020-09-19 19:00:00 20.6 12 Sudoeste 28 Sudoeste 0 -- -- 59
2020-09-19 18:00:00 20.9 15 Sudoeste 26 Sudoeste 0 -- -- 56
2020-09-19 17:00:00 20.6 13 Sudoeste 24 Sudoeste 0 -- -- 59
2020-09-19 16:00:00 20.4 10 Oeste 25 Sudoeste 0 -- -- 61
2020-09-19 15:00:00 20.4 14 Sudoeste 30 Sudoeste 0 -- -- 62
2020-09-19 14:00:00 20.4 17 Sudoeste 34 Sudoeste 0 -- -- 61
2020-09-19 13:00:00 18.7 20 Sudoeste 38 Sudoeste 0 -- -- 72
2020-09-19 12:00:00 17.5 20 Sudoeste 39 Sudoeste 0 -- -- 79
2020-09-19 11:00:00 16.7 26 Sudoeste 38 Sudoeste 0 -- -- 86
2020-09-19 10:00:00 15.6 21 Sudoeste 30 Sur 0 -- -- 93
2020-09-19 09:00:00 15.2 23 Sudoeste 33 Sudoeste 0 -- -- 94
2020-09-19 08:00:00 15.3 21 Sudoeste 37 Sudoeste 0 -- -- 94
2020-09-19 07:00:00 15.3 21 Sudoeste 34 Sur 0 -- -- 94
2020-09-19 06:00:00 15.4 22 Sudoeste 36 Sur 0 -- -- 94
2020-09-19 05:00:00 15.3 25 Sur 41 Sur 0 -- -- 95
2020-09-19 04:00:00 15.4 30 Sur 46 Sur 0 -- -- 93
2020-09-19 03:00:00 15.2 30 Sur 45 Sur 0.4 -- -- 94
2020-09-19 02:00:00 15.4 25 Sur 43 Sur 0.4 -- -- 94
2020-09-19 01:00:00 15.7 23 Sur 38 Sur 0 -- -- 95
2020-09-19 00:00:00 15.5 17 Sur 30 Sur 0 -- -- 97
2020-09-18 23:00:00 15.5 21 Sur 37 Sur 0.4 -- -- 96
2020-09-18 22:00:00 15.7 23 Sur 36 Sur 1.2 -- -- 94
2020-09-18 21:00:00 15.8 14 Sur 32 Sudoeste 10.2 -- -- 95
2020-09-18 20:00:00 17.4 11 Este 27 Sudeste 1.4 -- -- 88
2020-09-18 19:00:00 18.4 14 Sudeste 33 Sur 0 -- -- 78
2020-09-18 18:00:00 19.8 19 Sur 31 Sudeste 0 -- -- 70
2020-09-18 17:00:00 18.6 17 Este 33 Sudeste 0 -- -- 78
2020-09-18 16:00:00 17.3 12 Sudeste 30 Sur 1 -- -- 92
2020-09-18 15:00:00 17.4 18 Sur 30 Sudoeste 1 -- -- 87
2020-09-18 14:00:00 20.2 13 Sudeste 31 Sur 0 -- -- 63
2020-09-18 13:00:00 21.6 12 Sur 25 Sudeste 0 -- -- 54
2020-09-18 12:00:00 20.2 12 Sudeste 29 Sudeste 0 -- -- 64
2020-09-18 11:00:00 18.8 13 Sudeste 21 Este 0 -- -- 79
2020-09-18 10:00:00 17.7 5 Sur 18 Sudeste 0 -- -- 81
2020-09-18 09:00:00 15.6 10 Sudeste 18 Este 0 -- -- 88
2020-09-18 08:00:00 14.9 9 Sudeste 16 Sudeste 0 -- -- 93
2020-09-18 07:00:00 15 10 Sudeste 22 Este 0 -- -- 95
2020-09-18 06:00:00 15 11 Sudeste 21 Sudeste 0 -- -- 96
2020-09-18 05:00:00 15.1 7 Este 18 Sudeste 1.4 -- -- 96
2020-09-18 04:00:00 15.1 9 Sudeste 18 Sur 0 -- -- 91
2020-09-18 03:00:00 16.1 13 Sur 27 Sur 1.6 -- -- 88
2020-09-18 02:00:00 17 17 Este 23 Este 0.2 -- -- 90
2020-09-18 01:00:00 16.8 8 Nordeste 12 Nordeste 0 -- -- 90
2020-09-18 00:00:00 16.8 5 Nordeste 9 Noroeste 0 -- -- 87
2020-09-17 23:00:00 17.7 3 Noroeste 21 Sudoeste 0 -- -- 77
2020-09-17 22:00:00 19.5 11 Sudoeste 33 Sur 0 -- -- 70
2020-09-17 21:00:00 20.9 22 Sur 43 Sur 0.2 -- -- 70
2020-09-17 20:00:00 21.5 22 Sur 36 Sur 0 -- -- 67
2020-09-17 19:00:00 20.7 13 Sudeste 49 Sudeste 1 -- -- 71
2020-09-17 18:00:00 25.2 18 Sudeste 32 Sudeste 0 -- -- 53
2020-09-17 17:00:00 24.4 20 Sudeste 34 Sur 0 -- -- 55
2020-09-17 16:00:00 23.6 17 Sur 40 Sur 0 -- -- 58
2020-09-17 15:00:00 23.4 24 Sur 44 Sur 0 -- -- 60
2020-09-17 14:00:00 22.2 12 Sudeste 22 Este 0 -- -- 64
2020-09-17 13:00:00 21.1 17 Sudeste 33 Sudeste 0 -- -- 69
2020-09-17 12:00:00 21.5 13 Sudeste 28 Sur 0 -- -- 65
2020-09-17 11:00:00 22.2 16 Sudeste 34 Sudeste 0 -- -- 59
2020-09-17 10:00:00 21.9 15 Sudeste 24 Sudeste 0 -- -- 59
2020-09-17 09:00:00 20.6 12 Este 22 Sudeste 0 -- -- 60
2020-09-17 08:00:00 20.9 8 Sudeste 19 Sudeste 0 -- -- 58
2020-09-17 07:00:00 20.7 8 Este 15 Este 0 -- -- 59
2020-09-17 06:00:00 20.7 11 Este 22 Este 0 -- -- 59
2020-09-17 05:00:00 21.1 8 Este 17 Este 0 -- -- 60
2020-09-17 04:00:00 21.1 8 Sudeste 14 Sur 0 -- -- 59
2020-09-17 03:00:00 21.1 9 Sur 18 Sur 0 -- -- 57
2020-09-17 02:00:00 21.8 13 Sur 20 Sur 0 -- -- 52
2020-09-17 01:00:00 22.7 14 Sudeste 21 Sudeste 0 -- -- 47
2020-09-17 00:00:00 23.5 10 Sur 19 Sur 0 -- -- 45
2020-09-16 23:00:00 23.8 7 Sur 18 Sur 0 -- -- 47
2020-09-16 22:00:00 24.6 5 Sur 10 Sur 0 -- -- 46
2020-09-16 21:00:00 25 0 Calma 10 Sudoeste 0 -- -- 43
2020-09-16 20:00:00 25.8 3 Oeste 9 Oeste 0 -- -- 41
2020-09-16 19:00:00 27.1 2 Sudoeste 13 Sudoeste 0 -- -- 37
2020-09-16 18:00:00 27.8 8 Sur 33 Sudoeste 0 -- -- 33
2020-09-16 17:00:00 29.3 19 Sudoeste 33 Sudoeste 0 -- -- 31
2020-09-16 16:00:00 31.2 8 Sudoeste 21 Sudoeste 0 -- -- 29
2020-09-16 15:00:00 29.5 10 Nordeste 21 Este 0 -- -- 35
2020-09-16 14:00:00 29.3 9 Nordeste 18 Oeste 0 -- -- 36
2020-09-16 13:00:00 28.3 8 Sudoeste 23 Este 0 -- -- 37
2020-09-16 12:00:00 26.9 6 Sudeste 16 Este 0 -- -- 39
2020-09-16 11:00:00 25 5 Sudeste 13 Este 0 -- -- 45
2020-09-16 10:00:00 21.6 7 Este 12 Este 0 -- -- 51
2020-09-16 09:00:00 19.4 8 Este 12 Sudeste 0 -- -- 57
2020-09-16 08:00:00 18.7 9 Este 13 Sudeste 0 -- -- 57
2020-09-16 07:00:00 18.7 9 Este 12 Sudeste 0 -- -- 56
2020-09-16 06:00:00 18.9 7 Este 10 Este 0 -- -- 56
2020-09-16 05:00:00 18.8 6 Este 9 Este 0 -- -- 59
2020-09-16 04:00:00 19.5 7 Este 10 Sudeste 0 -- -- 56
2020-09-16 03:00:00 19.4 4 Este 9 Este 0 -- -- 55
2020-09-16 02:00:00 20 7 Este 10 Sudeste 0 -- -- 52
2020-09-16 01:00:00 21.3 2 Oeste 9 Noroeste 0 -- -- 46
2020-09-16 00:00:00 21.8 5 Noroeste 11 Noroeste 0 -- -- 45
2020-09-15 23:00:00 22.6 5 Noroeste 9 Oeste 0 -- -- 45
2020-09-15 22:00:00 23.1 5 Oeste 9 Oeste 0 -- -- 41
2020-09-15 21:00:00 24.1 3 Sudoeste 9 Sur 0 -- -- 38
2020-09-15 20:00:00 26.5 9 Sudoeste 19 Sudoeste 0 -- -- 32
2020-09-15 19:00:00 27.9 10 Sur 23 Sudoeste 0 -- -- 30
2020-09-15 18:00:00 28.8 11 Sudoeste 26 Sudoeste 0 -- -- 33
2020-09-15 17:00:00 28.6 15 Sur 32 Sur 0 -- -- 34
2020-09-15 16:00:00 28.4 18 Sudoeste 36 Sudoeste 0 -- -- 37
2020-09-15 15:00:00 28 10 Sur 24 Sudoeste 0 -- -- 40
2020-09-15 14:00:00 26.6 5 Sur 17 Sudeste 0 -- -- 46
2020-09-15 13:00:00 24.8 11 Sudoeste 20 Sudoeste 0 -- -- 52
2020-09-15 12:00:00 22.5 6 Sudoeste 9 Sur 0 -- -- 60
2020-09-15 11:00:00 20.4 3 Sur 7 Sudoeste 0 -- -- 68
2020-09-15 10:00:00 18.8 3 Sur 7 Sur 0 -- -- 75
2020-09-15 09:00:00 17.4 4 Sudeste 8 Sudeste 0 -- -- 77
2020-09-15 08:00:00 17 6 Sudeste 10 Sudeste 0 -- -- 77
2020-09-15 07:00:00 17.5 7 Sudeste 10 Sudeste 0 -- -- 74
2020-09-15 06:00:00 17.7 5 Sudeste 9 Sur 0 -- -- 72
2020-09-15 05:00:00 18.6 7 Sur 10 Sur 0 -- -- 68
2020-09-15 04:00:00 19 4 Sudoeste 8 Sur 0 -- -- 69
2020-09-15 03:00:00 20.2 4 Sur 7 Sur 0 -- -- 65
2020-09-15 02:00:00 20.5 4 Sur 8 Sudoeste 0 -- -- 66
2020-09-15 01:00:00 21 4 Sudoeste 14 Sudoeste 0 -- -- 61
2020-09-15 00:00:00 22.4 6 Sur 15 Sudoeste 0 -- -- 64
2020-09-14 23:00:00 22.6 5 Sudoeste 8 Sudoeste 0 -- -- 65
2020-09-14 22:00:00 22.9 3 Norte 13 Norte 0 -- -- 65
2020-09-14 21:00:00 21.7 6 Norte 15 Oeste 0 -- -- 74
2020-09-14 20:00:00 21.1 12 Norte 48 Sudoeste 7.8 -- -- 73
2020-09-14 19:00:00 29.6 14 Sur 22 Sur 0 -- -- 33
2020-09-14 18:00:00 30.4 12 Sur 29 Sur 0 -- -- 31
2020-09-14 17:00:00 30.8 14 Sur 31 Sur 0 -- -- 30
2020-09-14 16:00:00 31.4 11 Sur 34 Sudoeste 0 -- -- 30
2020-09-14 15:00:00 30.7 17 Sudoeste 33 Sudoeste 0 -- -- 31
2020-09-14 14:00:00 30.2 18 Sur 39 Sur 0 -- -- 30
2020-09-14 13:00:00 29.3 9 Sur 22 Sudoeste 0 -- -- 33
2020-09-14 12:00:00 27.5 10 Sudeste 24 Sudeste 0 -- -- 36
2020-09-14 11:00:00 26.3 10 Sudeste 20 Sudeste 0 -- -- 39
2020-09-14 10:00:00 23.8 9 Este 15 Este 0 -- -- 45
2020-09-14 09:00:00 20.3 12 Nordeste 13 Nordeste 0 -- -- 67
2020-09-14 08:00:00 20 3 Este 7 Nordeste 0 -- -- 69
2020-09-14 07:00:00 20.9 0 Calma 6 Sudoeste 0 -- -- 66
2020-09-14 06:00:00 20.9 3 Sudoeste 6 Oeste 0 -- -- 66
2020-09-14 05:00:00 21.3 2 Oeste 10 Sur 0 -- -- 64
2020-09-14 04:00:00 21.7 9 Sudoeste 19 Sudoeste 0 -- -- 60
2020-09-14 03:00:00 22.7 8 Sur 14 Sur 0 -- -- 51
2020-09-14 02:00:00 23.8 10 Sur 15 Sur 0 -- -- 45
2020-09-14 01:00:00 24.9 10 Sur 21 Sur 0 -- -- 37
2020-09-14 00:00:00 27.6 9 Sur 19 Sur 0 -- -- 27
2020-09-13 23:00:00 27.4 8 Este 27 Nordeste 0 -- -- 32
2020-09-13 22:00:00 27.9 22 Nordeste 30 Este 0 -- -- 32
2020-09-13 21:00:00 28.3 19 Nordeste 25 Nordeste 0 -- -- 31
2020-09-13 20:00:00 30.7 17 Nordeste 23 Nordeste 0 -- -- 27
2020-09-13 19:00:00 32.8 15 Este 25 Sudeste 0 -- -- 21
2020-09-13 18:00:00 33.2 13 Sudeste 30 Este 0 -- -- 21
2020-09-13 17:00:00 33.5 12 Sudeste 32 Nordeste 0 -- -- 21
2020-09-13 16:00:00 31.5 19 Nordeste 33 Este 0 -- -- 28
2020-09-13 15:00:00 31.6 19 Nordeste 33 Nordeste 0 -- -- 27
2020-09-13 14:00:00 30.5 22 Nordeste 31 Nordeste 0 -- -- 30
2020-09-13 13:00:00 29.5 21 Nordeste 34 Nordeste 0 -- -- 32
2020-09-13 12:00:00 28.8 24 Nordeste 32 Nordeste 0 -- -- 33
2020-09-13 11:00:00 27.1 22 Nordeste 32 Nordeste 0 -- -- 35
2020-09-13 10:00:00 25.4 22 Nordeste 30 Nordeste 0 -- -- 35
2020-09-13 09:00:00 23.8 18 Nordeste 24 Nordeste 0 -- -- 36
2020-09-13 08:00:00 22.3 15 Nordeste 19 Nordeste 0 -- -- 37
2020-09-13 07:00:00 23.1 12 Este 21 Este 0 -- -- 35
2020-09-13 06:00:00 24.7 9 Este 21 Sudeste 0 -- -- 32
2020-09-13 05:00:00 25.3 13 Sudeste 20 Sudeste 0 -- -- 30
2020-09-13 04:00:00 26 12 Sudeste 23 Este 0 -- -- 28
2020-09-13 03:00:00 27.5 14 Este 23 Este 0 -- -- 26
2020-09-13 02:00:00 27.2 18 Este 26 Este 0 -- -- 26
2020-09-13 01:00:00 25.5 15 Este 19 Este 0 -- -- 28
2020-09-13 00:00:00 25.3 16 Nordeste 17 Nordeste 0 -- -- 30
2020-09-12 23:00:00 26.5 15 Nordeste 17 Nordeste 0 -- -- 29
2020-09-12 22:00:00 26.2 9 Norte 12 Norte 0 -- -- 29
2020-09-12 21:00:00 29.6 3 Sudoeste 11 Sudoeste 0 -- -- 25
2020-09-12 20:00:00 31.8 7 Sur 20 Nordeste 0 -- -- 22
2020-09-12 19:00:00 33.6 13 Nordeste 22 Noroeste 0 -- -- 20
2020-09-12 18:00:00 33.3 5 Sur 35 Este 0 -- -- 21
2020-09-12 17:00:00 33.8 9 Nordeste 32 Nordeste 0 -- -- 21
2020-09-12 16:00:00 34.3 12 Nordeste 30 Nordeste 0 -- -- 21
2020-09-12 15:00:00 34 17 Nordeste 28 Nordeste 0 -- -- 21
2020-09-12 14:00:00 33.2 14 Norte 26 Nordeste 0 -- -- 22
2020-09-12 13:00:00 32.1 16 Nordeste 24 Nordeste 0 -- -- 23
2020-09-12 12:00:00 30.7 14 Nordeste 28 Nordeste 0 -- -- 24
2020-09-12 11:00:00 29 14 Nordeste 23 Nordeste 0 -- -- 26
2020-09-12 10:00:00 27.2 12 Nordeste 24 Nordeste 0 -- -- 28
2020-09-12 09:00:00 23.6 19 Nordeste 30 Nordeste 0 -- -- 33
2020-09-12 08:00:00 21.9 21 Nordeste 29 Nordeste 0 -- -- 35
2020-09-12 07:00:00 21.9 18 Nordeste 21 Nordeste 0 -- -- 34
2020-09-12 06:00:00 21.7 17 Nordeste 26 Nordeste 0 -- -- 34
2020-09-12 05:00:00 23.5 14 Este 19 Este 0 -- -- 29
2020-09-12 04:00:00 22.7 9 Este 14 Nordeste 0 -- -- 31
2020-09-12 03:00:00 23.7 7 Este 10 Nordeste 0 -- -- 29
2020-09-12 02:00:00 22.8 10 Este 11 Este 0 -- -- 30
2020-09-12 01:00:00 23.4 5 Norte 14 Nordeste 0 -- -- 29
2020-09-12 00:00:00 23.8 8 Nordeste 11 Este 0 -- -- 29
2020-09-11 23:00:00 27.2 7 Este 15 Este 0 -- -- 24
2020-09-11 22:00:00 25.8 5 Norte 10 Norte 0 -- -- 26
2020-09-11 21:00:00 26.4 8 Norte 12 Norte 0 -- -- 26
2020-09-11 20:00:00 30.2 8 Norte 21 Noroeste 0 -- -- 22
2020-09-11 19:00:00 32.6 4 Noroeste 18 Norte 0 -- -- 20
2020-09-11 18:00:00 33.1 8 Noroeste 19 Noroeste 0 -- -- 21
2020-09-11 17:00:00 33.1 5 Este 29 Sur 0 -- -- 20
2020-09-11 16:00:00 33.1 9 Nordeste 25 Norte 0 -- -- 22
2020-09-11 15:00:00 33.2 13 Norte 26 Sudoeste 0 -- -- 22
2020-09-11 14:00:00 32.4 7 Este 21 Nordeste 0 -- -- 21
2020-09-11 13:00:00 31.6 10 Nordeste 23 Nordeste 0 -- -- 24
2020-09-11 12:00:00 29.5 15 Nordeste 25 Nordeste 0 -- -- 25
2020-09-11 11:00:00 26.8 18 Nordeste 28 Nordeste 0 -- -- 28
2020-09-11 10:00:00 25.1 21 Nordeste 27 Nordeste 0 -- -- 31
2020-09-11 09:00:00 22.3 20 Nordeste 26 Nordeste 0 -- -- 35
2020-09-11 08:00:00 19.9 17 Nordeste 22 Nordeste 0 -- -- 38
2020-09-11 07:00:00 20.6 15 Nordeste 20 Nordeste 0 -- -- 36
2020-09-11 06:00:00 21.7 14 Este 26 Nordeste 0 -- -- 34
2020-09-11 05:00:00 21.5 15 Nordeste 17 Nordeste 0 -- -- 34
2020-09-11 04:00:00 22.8 13 Nordeste 13 Nordeste 0 -- -- 33
2020-09-11 03:00:00 22.5 11 Nordeste 13 Nordeste 0 -- -- 34
2020-09-11 02:00:00 24.1 8 Este 12 Este 0 -- -- 30
2020-09-11 01:00:00 23.5 9 Este 12 Sudeste 0 -- -- 32
2020-09-11 00:00:00 25 8 Nordeste 11 Nordeste 0 -- -- 29
2020-09-10 23:00:00 25 9 Este 11 Este 0 -- -- 29
2020-09-10 22:00:00 25.7 7 Nordeste -- -- 0 -- -- 29
2020-09-10 21:00:00 26.8 9 Nordeste 10 Nordeste 0 -- -- 27
2020-09-10 20:00:00 29.8 6 Nordeste 16 Nordeste 0 -- -- 24
2020-09-10 19:00:00 31.6 10 Nordeste 20 Norte 0 -- -- 21
2020-09-10 18:00:00 32.5 9 Nordeste 19 Norte 0 -- -- 19
2020-09-10 17:00:00 32.6 8 Norte 19 Norte 0 -- -- 19
2020-09-10 16:00:00 32.4 8 Noroeste 22 Noroeste 0 -- -- 19
2020-09-10 15:00:00 31.5 9 Nordeste 23 Norte 0 -- -- 21
2020-09-10 14:00:00 30.8 6 Norte 23 Nordeste 0 -- -- 24
2020-09-10 13:00:00 29.5 13 Nordeste 24 Nordeste 0 -- -- 27
2020-09-10 12:00:00 27.4 18 Nordeste 30 Nordeste 0 -- -- 31
2020-09-10 11:00:00 25.7 21 Nordeste 26 Nordeste 0 -- -- 32
2020-09-10 10:00:00 24 8 Norte 14 Nordeste 0 -- -- 34
2020-09-10 09:00:00 21.4 13 Nordeste 19 Nordeste 0 -- -- 38
2020-09-10 08:00:00 18.5 7 Nordeste 21 Nordeste 0 -- -- 44
2020-09-10 07:00:00 18.9 10 Nordeste 13 Nordeste 0 -- -- 40
2020-09-10 06:00:00 20.1 7 Este 9 Este 0 -- -- 37
2020-09-10 05:00:00 21.1 8 Este 13 Este 0 -- -- 36
2020-09-10 04:00:00 20.7 8 Este 10 Este 0 -- -- 37
2020-09-10 03:00:00 20.9 4 Este 10 Este 0 -- -- 36
2020-09-10 02:00:00 21.6 4 Este 9 Sudeste 0 -- -- 35
2020-09-10 01:00:00 22.1 7 Norte 9 Norte 0 -- -- 35
2020-09-10 00:00:00 22.5 8 Norte 10 Norte 0 -- -- 34
2020-09-09 23:00:00 22.9 7 Norte 10 Norte 0 -- -- 33
2020-09-09 22:00:00 22.9 8 Norte 12 Norte 0 -- -- 32
2020-09-09 21:00:00 24.7 9 Norte 14 Norte 0 -- -- 28
2020-09-09 20:00:00 28.3 8 Norte 19 Norte 0 -- -- 24
2020-09-09 19:00:00 30.3 10 Norte 23 Norte 0 -- -- 22
2020-09-09 18:00:00 30.6 7 Sudoeste 15 Sur 0 -- -- 22
2020-09-09 17:00:00 30.6 10 Nordeste 20 Nordeste 0 -- -- 25
2020-09-09 16:00:00 30.1 9 Nordeste 27 Este 0 -- -- 25
2020-09-09 15:00:00 29.6 7 Noroeste 20 Norte 0 -- -- 25
2020-09-09 14:00:00 28.5 13 Nordeste 25 Nordeste 0 -- -- 28
2020-09-09 13:00:00 27.6 14 Nordeste 26 Nordeste 0 -- -- 31
2020-09-09 12:00:00 26.4 14 Nordeste 27 Nordeste 0 -- -- 33
2020-09-09 11:00:00 24.3 15 Nordeste 22 Nordeste 0 -- -- 37
2020-09-09 10:00:00 23.2 14 Nordeste 26 Nordeste 0 -- -- 39
2020-09-09 09:00:00 19.9 19 Nordeste 28 Nordeste 0 -- -- 42
2020-09-09 08:00:00 18.4 21 Nordeste 32 Nordeste 0 -- -- 45
2020-09-09 07:00:00 18.8 26 Nordeste 33 Nordeste 0 -- -- 43
2020-09-09 06:00:00 18.3 19 Nordeste 23 Nordeste 0 -- -- 43
2020-09-09 05:00:00 18.2 13 Nordeste 14 Nordeste 0 -- -- 43
2020-09-09 04:00:00 19.2 7 Sudeste 19 Nordeste 0 -- -- 38
2020-09-09 03:00:00 19.8 17 Este 23 Nordeste 0 -- -- 36
2020-09-09 02:00:00 20.7 20 Nordeste 27 Nordeste 0 -- -- 34
2020-09-09 01:00:00 21.4 22 Nordeste 30 Nordeste 0 -- -- 33
2020-09-09 00:00:00 22.2 23 Nordeste 30 Nordeste 0 -- -- 32
2020-09-08 23:00:00 22.7 24 Nordeste 31 Nordeste 0 -- -- 32
2020-09-08 22:00:00 22.7 22 Nordeste 27 Nordeste 0 -- -- 33
2020-09-08 21:00:00 23.7 19 Nordeste 26 Nordeste 0 -- -- 34
2020-09-08 20:00:00 25.6 16 Nordeste 32 Nordeste 0 -- -- 32
2020-09-08 19:00:00 27.3 20 Nordeste 32 Nordeste 0 -- -- 26
2020-09-08 18:00:00 27.8 20 Nordeste 33 Nordeste 0 -- -- 23
2020-09-08 17:00:00 28.1 17 Nordeste 35 Nordeste 0 -- -- 24
2020-09-08 16:00:00 27.7 19 Nordeste 45 Nordeste 0 -- -- 25
2020-09-08 15:00:00 26.4 28 Nordeste 46 Nordeste 0 -- -- 30
2020-09-08 14:00:00 24.5 33 Nordeste 49 Nordeste 0 -- -- 35
2020-09-08 13:00:00 23.2 35 Nordeste 48 Nordeste 0 -- -- 39
2020-09-08 12:00:00 21.7 33 Nordeste 46 Nordeste 0 -- -- 43
2020-09-08 11:00:00 19.7 37 Nordeste 50 Nordeste 0 -- -- 46
2020-09-08 10:00:00 17.9 35 Nordeste 46 Nordeste 0 -- -- 49
2020-09-08 09:00:00 16 33 Nordeste 46 Nordeste 0 -- -- 47
2020-09-08 08:00:00 15.4 32 Nordeste 45 Nordeste 0 -- -- 46
2020-09-08 07:00:00 16.1 32 Nordeste 43 Nordeste 0 -- -- 43
2020-09-08 06:00:00 16.9 35 Nordeste 47 Nordeste 0 -- -- 38
2020-09-08 05:00:00 18.4 35 Nordeste 49 Nordeste 0 -- -- 32
2020-09-08 04:00:00 19.8 28 Nordeste 36 Nordeste 0 -- -- 28
2020-09-08 03:00:00 20.3 19 Nordeste 26 Nordeste 0 -- -- 28
2020-09-08 02:00:00 21.4 17 Nordeste 29 Nordeste 0 -- -- 30
2020-09-08 01:00:00 22.9 19 Este 31 Este 0 -- -- 28
2020-09-08 00:00:00 23.6 24 Nordeste 35 Este 0 -- -- 26
2020-09-07 23:00:00 23.2 19 Nordeste 27 Este 0 -- -- 26
2020-09-07 22:00:00 23 14 Nordeste 18 Este 0 -- -- 27
2020-09-07 21:00:00 25.3 12 Nordeste 15 Nordeste 0 -- -- 28
2020-09-07 20:00:00 28.1 11 Nordeste 22 Nordeste 0 -- -- 26
2020-09-07 19:00:00 29.9 14 Norte 28 Norte 0 -- -- 24
2020-09-07 18:00:00 30.9 14 Norte 27 Nordeste 0 -- -- 23
2020-09-07 17:00:00 30.6 17 Nordeste 31 Nordeste 0 -- -- 23
2020-09-07 16:00:00 30.4 18 Nordeste 28 Nordeste 0 -- -- 23
2020-09-07 15:00:00 30.7 17 Nordeste 28 Nordeste 0 -- -- 23
2020-09-07 14:00:00 29.7 16 Nordeste 30 Nordeste 0 -- -- 24
2020-09-07 13:00:00 28.5 22 Nordeste 36 Nordeste 0 -- -- 26
2020-09-07 12:00:00 27.7 19 Nordeste 30 Nordeste 0 -- -- 30
2020-09-07 11:00:00 25.8 16 Nordeste 31 Nordeste 0 -- -- 34
2020-09-07 10:00:00 24.6 16 Nordeste 28 Nordeste 0 -- -- 36
2020-09-07 09:00:00 20.6 8 Norte 12 Norte 0 -- -- 47
2020-09-07 08:00:00 19.6 3 Noroeste 13 Nordeste 0 -- -- 47
2020-09-07 07:00:00 20.8 9 Nordeste 17 Nordeste 0 -- -- 45
2020-09-07 06:00:00 22.2 13 Nordeste 18 Nordeste 0 -- -- 42
2020-09-07 05:00:00 22.8 10 Norte 13 Norte 0 -- -- 40
2020-09-07 04:00:00 24.1 6 Norte 8 Norte -- -- -- 36
2020-09-07 03:00:00 25 -- -- -- -- 0 -- -- 35
2020-09-07 02:00:00 25.2 2 Este 11 Nordeste 0 -- -- 34
2020-09-07 01:00:00 25.3 11 Nordeste 16 Norte 0 -- -- 34
2020-09-07 00:00:00 25.5 10 Norte 16 Norte 0 -- -- 32
2020-09-06 23:00:00 27 12 Norte 16 Noroeste 0 -- -- 27
2020-09-06 22:00:00 29.3 9 Noroeste 17 Noroeste 0 -- -- 24
2020-09-06 21:00:00 29.7 7 Noroeste 18 Noroeste 0 -- -- 24
2020-09-06 20:00:00 32.2 7 Noroeste 15 Norte 0 -- -- 21
2020-09-06 19:00:00 34.1 9 Norte 22 Oeste 0 -- -- 19
2020-09-06 18:00:00 34.9 4 Norte 25 Noroeste 0 -- -- 18
2020-09-06 17:00:00 35.1 9 Sudoeste 23 Oeste 0 -- -- 18
2020-09-06 16:00:00 35 13 Norte 27 Norte 0 -- -- 17
2020-09-06 15:00:00 34 8 Norte 18 Nordeste 0 -- -- 21
2020-09-06 14:00:00 32.8 5 Sudoeste 19 Nordeste 0 -- -- 27
2020-09-06 13:00:00 31.5 7 Norte 22 Nordeste 0 -- -- 28
2020-09-06 12:00:00 29.8 15 Nordeste 30 Nordeste 0 -- -- 32
2020-09-06 11:00:00 27.3 23 Nordeste 33 Nordeste 0 -- -- 37
2020-09-06 10:00:00 25.4 23 Nordeste 30 Nordeste 0 -- -- 38
2020-09-06 09:00:00 23.6 20 Nordeste 29 Nordeste 0 -- -- 39
2020-09-06 08:00:00 21.4 21 Nordeste 30 Nordeste 0 -- -- 43
2020-09-06 07:00:00 21.6 22 Nordeste 27 Nordeste 0 -- -- 37
2020-09-06 06:00:00 21.5 3 Sudoeste 12 Este 0 -- -- 36
2020-09-06 05:00:00 22.5 8 Nordeste 21 Norte 0 -- -- 36
2020-09-06 04:00:00 22 10 Norte 13 Norte 0 -- -- 34
2020-09-06 03:00:00 22.6 8 Norte 13 Este 0 -- -- 29
2020-09-06 02:00:00 23.8 10 Este 14 Este 0 -- -- 28
2020-09-06 01:00:00 24.4 12 Este 14 Este 0 -- -- 29
2020-09-06 00:00:00 25.4 13 Este 17 Este 0 -- -- 29
2020-09-05 23:00:00 25.4 8 Nordeste 14 Norte 0 -- -- 30
2020-09-05 22:00:00 26.2 10 Norte 14 Norte 0 -- -- 29
2020-09-05 21:00:00 28 8 Norte 14 Norte 0 -- -- 26
2020-09-05 20:00:00 31.8 8 Norte 21 Nordeste 0 -- -- 20
2020-09-05 19:00:00 33.9 13 Nordeste 23 Nordeste 0 -- -- 17
2020-09-05 18:00:00 34.6 9 Norte 23 Nordeste 0 -- -- 17
2020-09-05 17:00:00 35.2 8 Nordeste 21 Norte 0 -- -- 16
2020-09-05 16:00:00 34.5 9 Nordeste 23 Nordeste 0 -- -- 17
2020-09-05 15:00:00 34.2 9 Nordeste 27 Norte 0 -- -- 20
2020-09-05 14:00:00 33 10 Norte 21 Nordeste 0 -- -- 25
2020-09-05 13:00:00 31.8 10 Norte 23 Nordeste 0 -- -- 29
2020-09-05 12:00:00 29.8 18 Nordeste 26 Nordeste 0 -- -- 29
2020-09-05 11:00:00 28.6 16 Nordeste 24 Nordeste 0 -- -- 29
2020-09-05 10:00:00 27.2 12 Nordeste 26 Este 0 -- -- 30
2020-09-05 09:00:00 24.1 17 Nordeste 27 Nordeste 0 -- -- 31
2020-09-05 08:00:00 22.1 21 Nordeste 25 Nordeste 0 -- -- 29
2020-09-05 07:00:00 22.3 16 Nordeste 18 Nordeste 0 -- -- 28
2020-09-05 06:00:00 22.5 9 Nordeste 13 Nordeste 0 -- -- 28
2020-09-05 05:00:00 22.3 13 Nordeste 15 Nordeste 0 -- -- 30
2020-09-05 04:00:00 24 8 Nordeste 15 Este 0 -- -- 24
2020-09-05 03:00:00 26.6 10 Este 17 Este 0 -- -- 21
2020-09-05 02:00:00 26.4 11 Este 19 Este 0 -- -- 23
2020-09-05 01:00:00 26 17 Este 22 Este 0 -- -- 26
2020-09-05 00:00:00 26.7 19 Este 23 Este 0 -- -- 25
2020-09-04 23:00:00 26.9 14 Nordeste 22 Nordeste 0 -- -- 30
2020-09-04 22:00:00 26.9 13 Nordeste 15 Nordeste 0 -- -- 32
2020-09-04 21:00:00 28.6 9 Nordeste 18 Norte 0 -- -- 28
2020-09-04 20:00:00 31.8 8 Norte 16 Norte 0 -- -- 25
2020-09-04 19:00:00 33.7 8 Norte 18 Norte 0 -- -- 23
2020-09-04 18:00:00 34.1 11 Norte 27 Nordeste 0 -- -- 22
2020-09-04 17:00:00 34.1 14 Nordeste 28 Norte 0 -- -- 22
2020-09-04 16:00:00 34.1 15 Norte 29 Norte 0 -- -- 24
2020-09-04 15:00:00 32.9 10 Este 24 Este 0 -- -- 26
2020-09-04 14:00:00 31.9 9 Norte 28 Nordeste 0 -- -- 27
2020-09-04 13:00:00 30.4 13 Nordeste 24 Norte 0 -- -- 31
2020-09-04 12:00:00 28.5 15 Nordeste 25 Nordeste 0 -- -- 31
2020-09-04 11:00:00 27.8 7 Nordeste 15 Nordeste 0 -- -- 30
2020-09-04 10:00:00 25.8 3 Noroeste 8 Norte 0 -- -- 31
2020-09-04 09:00:00 24.1 3 Sudeste 9 Este 0 -- -- 32
2020-09-04 08:00:00 21.9 6 Este 10 Este 0 -- -- 35
2020-09-04 07:00:00 22 6 Este 13 Sudeste 0 -- -- 35
2020-09-04 06:00:00 22.5 3 Sudeste 15 Sudeste 0 -- -- 31
2020-09-04 05:00:00 24.3 10 Sudeste 15 Sudeste 0 -- -- 28
2020-09-04 04:00:00 23.5 9 Sudeste 19 Sudeste 0 -- -- 29
2020-09-04 03:00:00 22.6 12 Sudeste 32 Sur 0 -- -- 30
2020-09-04 02:00:00 23.1 13 Este 15 Este 0 -- -- 27
2020-09-04 01:00:00 24.6 10 Este 16 Nordeste 0 -- -- 26
2020-09-04 00:00:00 25.5 9 Nordeste 11 Nordeste 0 -- -- 26
2020-09-03 23:00:00 27.4 5 Este 13 Sudeste 0 -- -- 24
2020-09-03 22:00:00 26.7 11 Este 21 Nordeste 0 -- -- 25
2020-09-03 21:00:00 27.6 10 Norte 16 Norte 0 -- -- 24
2020-09-03 20:00:00 31.4 10 Norte 17 Norte 0 -- -- 20
2020-09-03 19:00:00 33.3 10 Norte 19 Norte 0 -- -- 18
2020-09-03 18:00:00 33.7 13 Nordeste 24 Nordeste 0 -- -- 18
2020-09-03 17:00:00 33.4 8 Nordeste 25 Nordeste 0 -- -- 19
2020-09-03 16:00:00 33.6 8 Norte 30 Nordeste 0 -- -- 20
2020-09-03 15:00:00 33.1 11 Norte 28 Noroeste 0 -- -- 20
2020-09-03 14:00:00 32.4 11 Nordeste 23 Norte 0 -- -- 21
2020-09-03 13:00:00 31.1 12 Nordeste 22 Norte 0 -- -- 23
2020-09-03 12:00:00 29 12 Nordeste 22 Nordeste 0 -- -- 23
2020-09-03 11:00:00 27.4 16 Nordeste 21 Nordeste 0 -- -- 24
2020-09-03 10:00:00 26 11 Nordeste 18 Nordeste 0 -- -- 25
2020-09-03 09:00:00 22.4 14 Nordeste 18 Este 0 -- -- 29
2020-09-03 08:00:00 19.9 16 Nordeste 18 Nordeste 0 -- -- 32
2020-09-03 07:00:00 20 9 Este 13 Este 0 -- -- 31
2020-09-03 06:00:00 19.9 6 Sudeste 17 Este 0 -- -- 33
2020-09-03 05:00:00 22.2 14 Este 17 Este 0 -- -- 27
2020-09-03 04:00:00 21 14 Nordeste 19 Nordeste 0 -- -- 30
2020-09-03 03:00:00 21.3 15 Nordeste 17 Nordeste 0 -- -- 31
2020-09-03 02:00:00 23 9 Este 12 Este 0 -- -- 28
2020-09-03 01:00:00 24.3 7 Sudeste 9 Sudeste 0 -- -- 26
2020-09-03 00:00:00 22.9 6 Sudeste 15 Norte 0 -- -- 29
2020-09-02 23:00:00 23.1 10 Norte 13 Norte 0 -- -- 28
2020-09-02 22:00:00 23.8 9 Norte 11 Norte 0 -- -- 25
2020-09-02 21:00:00 26 7 Norte 10 Nordeste 0 -- -- 22
2020-09-02 20:00:00 30 5 Nordeste 12 Nordeste 0 -- -- 19
2020-09-02 19:00:00 31.5 7 Noroeste 25 Noroeste 0 -- -- 17
2020-09-02 18:00:00 32 6 Noroeste 21 Noroeste 0 -- -- 17
2020-09-02 17:00:00 32 12 Norte 23 Noroeste 0 -- -- 18
2020-09-02 16:00:00 31.7 13 Norte 32 Nordeste 0 -- -- 17
2020-09-02 15:00:00 30.8 18 Nordeste 31 Nordeste 0 -- -- 21
2020-09-02 14:00:00 29.9 19 Nordeste 34 Nordeste 0 -- -- 21
2020-09-02 13:00:00 28 21 Nordeste 36 Nordeste 0 -- -- 26
2020-09-02 12:00:00 26 22 Nordeste 39 Nordeste 0 -- -- 26
2020-09-02 11:00:00 24 28 Nordeste 47 Nordeste 0 -- -- 28
2020-09-02 10:00:00 22.1 36 Nordeste 46 Nordeste 0 -- -- 29
2020-09-02 09:00:00 20.1 34 Nordeste 44 Nordeste 0 -- -- 33
2020-09-02 08:00:00 18.8 32 Nordeste 39 Nordeste 0 -- -- 33
2020-09-02 07:00:00 18.8 21 Nordeste 26 Nordeste 0 -- -- 30
2020-09-02 06:00:00 18.9 20 Nordeste 32 Nordeste 0 -- -- 29
2020-09-02 05:00:00 18 6 Nordeste 10 Este 0 -- -- 30
2020-09-02 04:00:00 18.3 7 Este 14 Este 0 -- -- 29
2020-09-02 03:00:00 19 10 Este 15 Sudeste 0 -- -- 28
2020-09-02 02:00:00 20.8 10 Sudeste 13 Sudeste 0 -- -- 26
2020-09-02 01:00:00 22.6 10 Este 17 Este 0 -- -- 23
2020-09-02 00:00:00 22.7 12 Este 17 Este 0 -- -- 23
2020-09-01 23:00:00 21.5 6 Norte 11 Noroeste 0 -- -- 24
2020-09-01 22:00:00 24.2 8 Noroeste 11 Noroeste 0 -- -- 22
2020-09-01 21:00:00 25.5 6 Noroeste 19 Oeste 0 -- -- 20
2020-09-01 20:00:00 28.3 6 Oeste 22 Sudoeste 0 -- -- 18
2020-09-01 19:00:00 29.8 6 Noroeste 20 Sudoeste 0 -- -- 15
2020-09-01 18:00:00 29.6 7 Norte 20 Oeste 0 -- -- 16
2020-09-01 17:00:00 30.4 7 Sudoeste 23 Sudoeste 0 -- -- 16
2020-09-01 16:00:00 29.7 6 Norte 26 Norte 0 -- -- 17
2020-09-01 15:00:00 28.3 13 Sudoeste 21 Sudoeste 0 -- -- 18
2020-09-01 14:00:00 28.2 8 Oeste 16 Noroeste 0 -- -- 19
2020-09-01 13:00:00 26.4 4 Oeste 15 Norte 0 -- -- 21
2020-09-01 12:00:00 26.4 4 Sudoeste 14 Sur 0 -- -- 19
2020-09-01 11:00:00 25.6 6 Sudeste 11 Sudeste 0 -- -- 21
2020-09-01 10:00:00 20.2 6 Sudeste 11 Este 0 -- -- 27
2020-09-01 09:00:00 19 11 Este 13 Este 0 -- -- 28
2020-09-01 08:00:00 18.2 11 Este 13 Este 0 -- -- 29
2020-09-01 07:00:00 18.6 9 Este 15 Este 0 -- -- 28
2020-09-01 06:00:00 19.4 3 Oeste 9 Este 0 -- -- 27
2020-09-01 05:00:00 20.4 6 Este 12 Este 0 -- -- 26
2020-09-01 04:00:00 19 6 Este 9 Este 0 -- -- 26
2020-09-01 03:00:00 18.4 5 Nordeste 9 Este 0 -- -- 27
2020-09-01 02:00:00 19.4 7 Este 9 Este 0 -- -- 25
2020-09-01 01:00:00 20.6 4 Sudeste 8 Sudeste 0 -- -- 24
2020-09-01 00:00:00 19.4 6 Sudeste 9 Norte 0 -- -- 25
2020-08-31 23:00:00 19.5 9 Norte 10 Norte 0 -- -- 26
2020-08-31 22:00:00 20 11 Norte 14 Norte 0 -- -- 25
2020-08-31 21:00:00 22 10 Norte 15 Norte 0 -- -- 23
2020-08-31 20:00:00 26.1 8 Norte 16 Noroeste 0 -- -- 20
2020-08-31 19:00:00 27.9 7 Norte 18 Norte 0 -- -- 18
2020-08-31 18:00:00 28.5 10 Noroeste 20 Noroeste 0 -- -- 19
2020-08-31 17:00:00 28.2 5 Sudeste 15 Nordeste 0 -- -- 20
2020-08-31 16:00:00 27.4 10 Nordeste 20 Norte 0 -- -- 22
2020-08-31 15:00:00 26.1 11 Norte 19 Norte 0 -- -- 24
2020-08-31 14:00:00 26 11 Norte 23 Nordeste 0 -- -- 23
2020-08-31 13:00:00 25.4 13 Nordeste 27 Nordeste 0 -- -- 25
2020-08-31 12:00:00 22.9 12 Nordeste 24 Nordeste 0 -- -- 29
2020-08-31 11:00:00 20.9 18 Nordeste 31 Nordeste 0 -- -- 31
2020-08-31 10:00:00 18.2 25 Nordeste 34 Nordeste 0 -- -- 37
2020-08-31 09:00:00 15.7 26 Nordeste 40 Nordeste 0 -- -- 42
2020-08-31 08:00:00 14.3 30 Nordeste 39 Nordeste 0 -- -- 44
2020-08-31 07:00:00 14.7 29 Nordeste 40 Nordeste 0 -- -- 43
2020-08-31 06:00:00 15.6 27 Nordeste 33 Nordeste 0 -- -- 39
2020-08-31 05:00:00 16.6 21 Nordeste 30 Nordeste 0 -- -- 35
2020-08-31 04:00:00 16.9 18 Nordeste 24 Este 0 -- -- 33
2020-08-31 03:00:00 18 21 Este 31 Este 0 -- -- 31
2020-08-31 02:00:00 18.8 24 Este 36 Este 0 -- -- 29
2020-08-31 01:00:00 18.9 24 Nordeste 32 Este 0 -- -- 30
2020-08-31 00:00:00 18.1 13 Nordeste 21 Nordeste 0 -- -- 34
2020-08-30 23:00:00 18.2 5 Norte 10 Este 0 -- -- 33
2020-08-30 22:00:00 19.7 9 Este 11 Este 0 -- -- 30
2020-08-30 21:00:00 21.6 4 Nordeste 9 Noroeste 0 -- -- 25
2020-08-30 20:00:00 23.9 9 Norte 29 Nordeste 0 -- -- 23
2020-08-30 19:00:00 25.1 4 Sudoeste 18 Nordeste 0 -- -- 22
2020-08-30 18:00:00 25.6 11 Nordeste 23 Nordeste 0 -- -- 21
2020-08-30 17:00:00 25.8 8 Nordeste 22 Norte 0 -- -- 18
2020-08-30 16:00:00 25.3 16 Norte 34 Nordeste 0 -- -- 23
2020-08-30 15:00:00 24.4 9 Norte 29 Nordeste 0 -- -- 26
2020-08-30 14:00:00 24.1 13 Norte 27 Nordeste 0 -- -- 29
2020-08-30 13:00:00 23 16 Nordeste 33 Nordeste 0 -- -- 32
2020-08-30 12:00:00 21.3 21 Nordeste 34 Nordeste 0 -- -- 34
2020-08-30 11:00:00 19.6 23 Nordeste 33 Nordeste 0 -- -- 38
2020-08-30 10:00:00 17.9 20 Nordeste 26 Nordeste 0 -- -- 44
2020-08-30 09:00:00 15.8 18 Nordeste 25 Nordeste 0 -- -- 49
2020-08-30 08:00:00 12.7 12 Nordeste 16 Nordeste 0 -- -- 57
2020-08-30 07:00:00 13.7 9 Este 13 Este 0 -- -- 52
2020-08-30 06:00:00 13.7 5 Sudeste 14 Nordeste 0 -- -- 53
2020-08-30 05:00:00 15.2 11 Este 17 Este 0 -- -- 49
2020-08-30 04:00:00 14.4 10 Nordeste 14 Norte 0 -- -- 50
2020-08-30 03:00:00 14.6 7 Norte 10 Nordeste 0 -- -- 49
2020-08-30 02:00:00 15.3 7 Nordeste 13 Norte 0 -- -- 48
2020-08-30 01:00:00 16.4 8 Norte 22 Noroeste 0 -- -- 43
2020-08-30 00:00:00 17.1 10 Norte 22 Noroeste 0 -- -- 41
2020-08-29 23:00:00 18.6 15 Noroeste 23 Noroeste 0 -- -- 38
2020-08-29 22:00:00 19.6 13 Norte 30 Norte 0 -- -- 36
2020-08-29 21:00:00 21.4 18 Norte 36 Noroeste 0 -- -- 31
2020-08-29 20:00:00 23.4 18 Noroeste 33 Noroeste 0 -- -- 27
2020-08-29 19:00:00 25 19 Norte 31 Norte 0 -- -- 23
2020-08-29 18:00:00 25.6 15 Norte 42 Noroeste 0 -- -- 23
2020-08-29 17:00:00 26.2 10 Norte 33 Nordeste 0 -- -- 24
2020-08-29 16:00:00 25.4 13 Noroeste 30 Noroeste 0 -- -- 26
2020-08-29 15:00:00 24.6 8 Norte 24 Noroeste 0 -- -- 27
2020-08-29 14:00:00 24.4 11 Norte 24 Norte 0 -- -- 28
2020-08-29 13:00:00 22.9 10 Norte 21 Noroeste 0 -- -- 30
2020-08-29 12:00:00 21.3 8 Oeste 19 Noroeste 0 -- -- 35
2020-08-29 11:00:00 19.4 9 Noroeste 18 Norte 0 -- -- 40
2020-08-29 10:00:00 17.1 9 Noroeste 15 Noroeste 0 -- -- 47
2020-08-29 09:00:00 15 5 Norte 14 Norte 0 -- -- 53
2020-08-29 08:00:00 11.5 9 Norte 16 Norte 0 -- -- 61
2020-08-29 07:00:00 12.2 5 Nordeste 17 Noroeste 0 -- -- 56
2020-08-29 06:00:00 13.9 8 Noroeste 33 Noroeste 0 -- -- 52
2020-08-29 05:00:00 14.8 21 Noroeste 40 Noroeste 0 -- -- 49
2020-08-29 04:00:00 16 17 Noroeste 33 Noroeste 0 -- -- 45
2020-08-29 03:00:00 17 21 Noroeste 40 Noroeste 0 -- -- 44
2020-08-29 02:00:00 18.3 16 Noroeste 37 Noroeste 0 -- -- 43
2020-08-29 01:00:00 19.8 21 Noroeste 48 Noroeste 0 -- -- 39
2020-08-29 00:00:00 21.1 19 Noroeste 36 Noroeste 0 -- -- 38
2020-08-28 23:00:00 22.3 19 Noroeste 35 Noroeste 0 -- -- 34
2020-08-28 22:00:00 23.8 16 Noroeste 33 Oeste 0 -- -- 28
2020-08-28 21:00:00 25.8 15 Noroeste 32 Noroeste 0 -- -- 24
2020-08-28 20:00:00 28.1 17 Noroeste 36 Oeste 0 -- -- 21
2020-08-28 19:00:00 29.9 14 Oeste 39 Oeste 0 -- -- 16
2020-08-28 18:00:00 30.6 17 Noroeste 39 Noroeste 0 -- -- 15
2020-08-28 17:00:00 30.3 18 Oeste 40 Oeste 0 -- -- 19
2020-08-28 16:00:00 30.6 18 Oeste 37 Sudoeste 0 -- -- 22
2020-08-28 15:00:00 29.5 18 Oeste 37 Oeste 0 -- -- 26
2020-08-28 14:00:00 28.9 16 Oeste 33 Oeste 0 -- -- 32
2020-08-28 13:00:00 28 16 Oeste 39 Noroeste 0 -- -- 38
2020-08-28 12:00:00 26.3 17 Oeste 44 Noroeste 0 -- -- 41
2020-08-28 11:00:00 25.2 18 Noroeste 38 Noroeste 0 -- -- 48
2020-08-28 10:00:00 22.6 6 Oeste 19 Oeste 0 -- -- 55
2020-08-28 09:00:00 19.9 6 Sur 9 Sur 0 -- -- 69
2020-08-28 08:00:00 18.8 4 Sur 7 Sur 0 -- -- 75
2020-08-28 07:00:00 20.1 4 Sur 12 Noroeste 0 -- -- 71
2020-08-28 06:00:00 20.5 3 Sudeste 9 Sudeste 0 -- -- 69
2020-08-28 05:00:00 21.3 7 Sudeste 9 Sudeste 0 -- -- 63
2020-08-28 04:00:00 22.6 5 Sudeste 7 Sudeste 0 -- -- 56
2020-08-28 03:00:00 24.1 4 Sudoeste 16 Noroeste 0 -- -- 54
2020-08-28 02:00:00 25.3 7 Noroeste 20 Noroeste 0 -- -- 51
2020-08-28 01:00:00 26.7 7 Noroeste 30 Noroeste 0 -- -- 43
2020-08-28 00:00:00 27.8 14 Noroeste 24 Noroeste 0 -- -- 34
2020-08-27 23:00:00 29.3 18 Norte 24 Noroeste 0 -- -- 29
2020-08-27 22:00:00 30.5 10 Oeste 21 Oeste 0 -- -- 31
2020-08-27 21:00:00 32 7 Oeste 21 Noroeste 0 -- -- 27
2020-08-27 20:00:00 34.3 14 Noroeste 26 Noroeste 0 -- -- 21
2020-08-27 19:00:00 36.5 10 Oeste 23 Sudoeste 0 -- -- 20
2020-08-27 18:00:00 37.3 8 Noroeste 26 Oeste 0 -- -- 19
2020-08-27 17:00:00 37.5 7 Oeste 25 Oeste 0 -- -- 19
2020-08-27 16:00:00 36.3 12 Sur 22 Sur 0 -- -- 22
2020-08-27 15:00:00 35.5 11 Sudoeste 21 Sudoeste 0 -- -- 24
2020-08-27 14:00:00 33.8 11 Sudoeste 21 Sudoeste 0 -- -- 27
2020-08-27 13:00:00 31.8 10 Sudoeste 20 Sudoeste 0 -- -- 32
2020-08-27 12:00:00 29.7 9 Sudoeste 15 Sudoeste 0 -- -- 37
2020-08-27 11:00:00 27.2 6 Sudoeste 12 Sur 0 -- -- 41
2020-08-27 10:00:00 24.7 7 Sudeste 13 Sudeste 0 -- -- 48
2020-08-27 09:00:00 23 9 Sudeste 13 Sudeste 0 -- -- 51
2020-08-27 08:00:00 21.4 10 Sudeste 13 Sudeste 0 -- -- 55
2020-08-27 07:00:00 21.5 10 Sudeste 13 Sudeste 0 -- -- 51
2020-08-27 06:00:00 22.2 9 Sudeste 11 Sudeste 0 -- -- 47
2020-08-27 05:00:00 23.3 10 Sudeste 14 Sudeste 0 -- -- 42
2020-08-27 04:00:00 23.9 10 Sudeste 15 Sudeste 0 -- -- 43
2020-08-27 03:00:00 24.3 12 Sudeste 18 Sudeste 0 -- -- 40
2020-08-27 02:00:00 24.7 10 Sudeste 13 Sudeste 0 -- -- 27
2020-08-27 01:00:00 25.7 6 Sudeste 14 Sur 0 -- -- 24
2020-08-27 00:00:00 28.1 8 Sur 15 Sur 0 -- -- 19
2020-08-26 23:00:00 29.6 5 Oeste 14 Oeste 0 -- -- 17
2020-08-26 22:00:00 30.5 8 Oeste 15 Oeste 0 -- -- 15
2020-08-26 21:00:00 32 5 Oeste 17 Sudoeste 0 -- -- 14
2020-08-26 20:00:00 35 9 Sudoeste 22 Sudoeste 0 -- -- 12
2020-08-26 19:00:00 36.7 9 Sudoeste 24 Sudoeste 0 -- -- 12
2020-08-26 18:00:00 36.9 15 Sudoeste 27 Oeste 0 -- -- 13
2020-08-26 17:00:00 37.1 13 Oeste 30 Oeste 0 -- -- 14
2020-08-26 16:00:00 37 14 Oeste 32 Sudoeste 0 -- -- 15
2020-08-26 15:00:00 35.4 16 Sudoeste 30 Sudoeste 0 -- -- 19
2020-08-26 14:00:00 35.2 15 Sudoeste 27 Sudoeste 0 -- -- 18
2020-08-26 13:00:00 34.1 14 Sudoeste 24 Sudoeste 0 -- -- 18
2020-08-26 12:00:00 33 8 Sudoeste 17 Sudoeste 0 -- -- 21
2020-08-26 11:00:00 29.9 8 Sudoeste 13 Sudoeste 0 -- -- 24
2020-08-26 10:00:00 27.6 7 Sudeste 15 Este 0 -- -- 28
2020-08-26 09:00:00 25.1 9 Sudeste 15 Sudeste 0 -- -- 32
2020-08-26 08:00:00 22.5 11 Sudeste 17 Este 0 -- -- 36
2020-08-26 07:00:00 22.1 11 Este 13 Este 0 -- -- 38
2020-08-26 06:00:00 22.7 10 Sudeste 14 Este 0 -- -- 36
2020-08-26 05:00:00 22.7 8 Sudeste 11 Sudeste 0 -- -- 37
2020-08-26 04:00:00 23.3 8 Sudeste 12 Sudeste 0 -- -- 35
2020-08-26 03:00:00 24.5 9 Sudeste 14 Sudeste 0 -- -- 33
2020-08-26 02:00:00 25.3 9 Sudeste 13 Sudeste 0 -- -- 32
2020-08-26 01:00:00 26.4 8 Noroeste 15 Oeste 0 -- -- 29
2020-08-26 00:00:00 28.6 9 Noroeste 19 Oeste 0 -- -- 25
2020-08-25 23:00:00 29.9 7 Noroeste 12 Noroeste 0 -- -- 24
2020-08-25 22:00:00 30.5 6 Oeste 12 Oeste 0 -- -- 23
2020-08-25 21:00:00 32.5 5 Noroeste 17 Sudoeste 0 -- -- 22
2020-08-25 20:00:00 35.4 7 Oeste 23 Sudoeste 0 -- -- 19
2020-08-25 19:00:00 36.9 6 Oeste 22 Oeste 0 -- -- 17
2020-08-25 18:00:00 37 10 Oeste 26 Sudoeste 0 -- -- 17
2020-08-25 17:00:00 36.8 12 Oeste 23 Sudoeste 0 -- -- 18
2020-08-25 16:00:00 36.9 10 Sudoeste 29 Sudoeste 0 -- -- 18
2020-08-25 15:00:00 36.1 9 Oeste 28 Sudoeste 0 -- -- 19
2020-08-25 14:00:00 34.7 9 Oeste 22 Sudoeste 0 -- -- 21
2020-08-25 13:00:00 33.5 6 Sudoeste 17 Sudoeste 0 -- -- 23
2020-08-25 12:00:00 30.8 8 Sudoeste 13 Sudoeste 0 -- -- 27
2020-08-25 11:00:00 27.9 6 Sudoeste 12 Sudoeste 0 -- -- 32
2020-08-25 10:00:00 25.5 5 Sudeste 12 Sudeste 0 -- -- 38
2020-08-25 09:00:00 24.2 8 Nordeste 13 Sudeste 0 -- -- 29
2020-08-25 08:00:00 22.6 8 Este 17 Sudeste 0 -- -- 28
2020-08-25 07:00:00 23.7 12 Sudeste 17 Sudeste 0 -- -- 27
2020-08-25 06:00:00 24.6 13 Sudeste 19 Sudeste 0 -- -- 25
2020-08-25 05:00:00 24 12 Sudeste 19 Sudeste 0 -- -- 25
2020-08-25 04:00:00 24.4 10 Sudeste 15 Sudeste 0 -- -- 25
2020-08-25 03:00:00 25.1 11 Sudeste 15 Sudeste 0 -- -- 25
2020-08-25 02:00:00 26.4 10 Este 18 Sudeste 0 -- -- 23
2020-08-25 01:00:00 26.9 9 Este 14 Este 0 -- -- 23
2020-08-25 00:00:00 27.4 8 Sudeste 12 Sudeste 0 -- -- 22
2020-08-24 23:00:00 28.2 4 Sur 13 Sur 0 -- -- 23
2020-08-24 22:00:00 29.1 6 Norte 11 Norte 0 -- -- 27
2020-08-24 21:00:00 31.1 4 Noroeste 11 Sudoeste 0 -- -- 20
2020-08-24 20:00:00 34.5 4 Oeste 17 Noroeste 0 -- -- 21
2020-08-24 19:00:00 35.3 9 Oeste 32 Sudoeste 0 -- -- 20
2020-08-24 18:00:00 35.9 10 Sudoeste 22 Noroeste 0 -- -- 20
2020-08-24 17:00:00 35.8 10 Noroeste 20 Noroeste 0 -- -- 23
2020-08-24 16:00:00 35.4 11 Nordeste 24 Nordeste 0 -- -- 24
2020-08-24 15:00:00 34.5 13 Nordeste 23 Nordeste 0 -- -- 27
2020-08-24 14:00:00 33.2 12 Nordeste 26 Nordeste 0 -- -- 27
2020-08-24 13:00:00 32.3 17 Nordeste 35 Nordeste 0 -- -- 28
2020-08-24 12:00:00 30.8 27 Nordeste 39 Nordeste 0 -- -- 31
2020-08-24 11:00:00 28.9 27 Nordeste 38 Nordeste 0 -- -- 36
2020-08-24 10:00:00 27.4 28 Este 40 Nordeste 0 -- -- 35
2020-08-24 09:00:00 25.7 19 Este 36 Nordeste 0 -- -- 35
2020-08-24 08:00:00 23.8 27 Nordeste 36 Nordeste 0 -- -- 33
2020-08-24 07:00:00 23.3 20 Nordeste 29 Nordeste 0 -- -- 31
2020-08-24 06:00:00 22.2 16 Nordeste 19 Nordeste 0 -- -- 32
2020-08-24 05:00:00 22 8 Nordeste 10 Nordeste 0 -- -- 32
2020-08-24 04:00:00 22.5 8 Este 13 Este 0 -- -- 31
2020-08-24 03:00:00 23.9 11 Este 14 Este 0 -- -- 28
2020-08-24 02:00:00 24.7 9 Este 15 Este 0 -- -- 27
2020-08-24 01:00:00 24.7 8 Sudeste 10 Sudeste 0 -- -- 27
2020-08-24 00:00:00 24.5 8 Norte 17 Norte 0 -- -- 27